sensor_id;sensor_type;location;lat;lon;timestamp;temperature;humidity
31731;DHT22;18310;55.586;12.286;2022-09-09T00:00:19;16.20;82.80
31731;DHT22;18310;55.586;12.286;2022-09-09T00:03:26;16.20;83.00
31731;DHT22;18310;55.586;12.286;2022-09-09T00:06:45;16.30;83.00
31731;DHT22;18310;55.586;12.286;2022-09-09T00:09:59;16.20;83.00
31731;DHT22;18310;55.586;12.286;2022-09-09T00:13:16;16.20;82.90
31731;DHT22;18310;55.586;12.286;2022-09-09T00:16:28;16.30;83.00
31731;DHT22;18310;55.586;12.286;2022-09-09T00:19:43;15.80;82.90
31731;DHT22;18310;55.586;12.286;2022-09-09T00:22:59;16.20;83.30
31731;DHT22;18310;55.586;12.286;2022-09-09T00:26:13;16.20;83.20
31731;DHT22;18310;55.586;12.286;2022-09-09T00:29:25;16.20;83.30
31731;DHT22;18310;55.586;12.286;2022-09-09T00:32:35;16.20;83.30
31731;DHT22;18310;55.586;12.286;2022-09-09T00:35:40;16.40;83.40
31731;DHT22;18310;55.586;12.286;2022-09-09T00:38:51;17.30;83.80
31731;DHT22;18310;55.586;12.286;2022-09-09T00:42:10;16.00;83.20
31731;DHT22;18310;55.586;12.286;2022-09-09T00:45:37;16.00;83.20
31731;DHT22;18310;55.586;12.286;2022-09-09T00:49:07;16.00;83.20
31731;DHT22;18310;55.586;12.286;2022-09-09T00:52:26;16.00;83.40
31731;DHT22;18310;55.586;12.286;2022-09-09T00:55:42;17.80;84.50
31731;DHT22;18310;55.586;12.286;2022-09-09T00:58:55;14.10;82.50
31731;DHT22;18310;55.586;12.286;2022-09-09T01:02:15;15.90;83.80
31731;DHT22;18310;55.586;12.286;2022-09-09T01:05:30;15.90;83.80
31731;DHT22;18310;55.586;12.286;2022-09-09T01:08:52;15.90;84.00
31731;DHT22;18310;55.586;12.286;2022-09-09T01:12:23;15.90;84.20
31731;DHT22;18310;55.586;12.286;2022-09-09T01:15:30;15.40;84.00
31731;DHT22;18310;55.586;12.286;2022-09-09T01:18:39;15.90;84.40
31731;DHT22;18310;55.586;12.286;2022-09-09T01:21:50;15.90;84.50
31731;DHT22;18310;55.586;12.286;2022-09-09T01:25:26;15.90;84.60
31731;DHT22;18310;55.586;12.286;2022-09-09T01:28:34;15.90;84.90
31731;DHT22;18310;55.586;12.286;2022-09-09T01:31:41;16.90;85.60
31731;DHT22;18310;55.586;12.286;2022-09-09T01:34:54;15.80;85.40
31731;DHT22;18310;55.586;12.286;2022-09-09T01:37:57;16.00;85.80
31731;DHT22;18310;55.586;12.286;2022-09-09T01:41:01;15.70;85.90
31731;DHT22;18310;55.586;12.286;2022-09-09T01:44:07;16.40;86.40
31731;DHT22;18310;55.586;12.286;2022-09-09T01:47:11;16.20;86.40
31731;DHT22;18310;55.586;12.286;2022-09-09T01:50:16;16.30;86.30
31731;DHT22;18310;55.586;12.286;2022-09-09T01:53:21;16.30;86.00
31731;DHT22;18310;55.586;12.286;2022-09-09T01:56:34;16.40;85.90
31731;DHT22;18310;55.586;12.286;2022-09-09T01:59:59;16.30;85.70
31731;DHT22;18310;55.586;12.286;2022-09-09T02:03:15;16.40;85.80
31731;DHT22;18310;55.586;12.286;2022-09-09T02:06:28;18.70;86.80
31731;DHT22;18310;55.586;12.286;2022-09-09T02:09:36;16.00;85.30
31731;DHT22;18310;55.586;12.286;2022-09-09T02:12:45;16.40;85.50
31731;DHT22;18310;55.586;12.286;2022-09-09T02:15:56;16.40;85.60
31731;DHT22;18310;55.586;12.286;2022-09-09T02:19:07;16.30;85.60
31731;DHT22;18310;55.586;12.286;2022-09-09T02:22:16;16.30;85.60
31731;DHT22;18310;55.586;12.286;2022-09-09T02:25:25;16.30;85.70
31731;DHT22;18310;55.586;12.286;2022-09-09T02:28:32;16.30;85.90
31731;DHT22;18310;55.586;12.286;2022-09-09T02:31:41;15.70;85.60
31731;DHT22;18310;55.586;12.286;2022-09-09T02:34:51;16.30;86.20
31731;DHT22;18310;55.586;12.286;2022-09-09T02:38:01;16.30;86.40
31731;DHT22;18310;55.586;12.286;2022-09-09T02:41:06;16.40;86.60
31731;DHT22;18310;55.586;12.286;2022-09-09T02:44:11;16.40;86.70
31731;DHT22;18310;55.586;12.286;2022-09-09T02:47:29;16.40;86.80
31731;DHT22;18310;55.586;12.286;2022-09-09T02:50:42;16.50;87.10
31731;DHT22;18310;55.586;12.286;2022-09-09T02:54:00;16.50;87.60
31731;DHT22;18310;55.586;12.286;2022-09-09T02:57:15;16.60;87.40
31731;DHT22;18310;55.586;12.286;2022-09-09T03:00:23;16.70;87.30
31731;DHT22;18310;55.586;12.286;2022-09-09T03:03:29;16.70;87.30
31731;DHT22;18310;55.586;12.286;2022-09-09T03:06:33;17.50;87.60
31731;DHT22;18310;55.586;12.286;2022-09-09T03:09:37;16.90;87.10
31731;DHT22;18310;55.586;12.286;2022-09-09T03:12:40;16.90;86.50
31731;DHT22;18310;55.586;12.286;2022-09-09T03:15:43;17.00;86.90
31731;DHT22;18310;55.586;12.286;2022-09-09T03:18:48;17.00;87.00
31731;DHT22;18310;55.586;12.286;2022-09-09T03:21:52;17.00;87.10
31731;DHT22;18310;55.586;12.286;2022-09-09T03:24:56;19.70;88.70
31731;DHT22;18310;55.586;12.286;2022-09-09T03:28:00;17.10;87.10
31731;DHT22;18310;55.586;12.286;2022-09-09T03:31:05;17.20;86.90
31731;DHT22;18310;55.586;12.286;2022-09-09T03:34:14;17.20;86.70
31731;DHT22;18310;55.586;12.286;2022-09-09T03:37:20;17.20;86.60
31731;DHT22;18310;55.586;12.286;2022-09-09T03:40:24;17.30;86.60
31731;DHT22;18310;55.586;12.286;2022-09-09T03:43:28;17.30;86.70
31731;DHT22;18310;55.586;12.286;2022-09-09T03:46:31;17.30;86.60
31731;DHT22;18310;55.586;12.286;2022-09-09T03:49:36;17.40;86.80
31731;DHT22;18310;55.586;12.286;2022-09-09T03:52:40;17.40;86.70
31731;DHT22;18310;55.586;12.286;2022-09-09T03:55:46;17.40;86.00
31731;DHT22;18310;55.586;12.286;2022-09-09T03:58:50;17.40;86.50
31731;DHT22;18310;55.586;12.286;2022-09-09T04:01:53;17.50;86.10
31731;DHT22;18310;55.586;12.286;2022-09-09T04:05:00;17.50;85.80
31731;DHT22;18310;55.586;12.286;2022-09-09T04:08:03;17.40;85.70
31731;DHT22;18310;55.586;12.286;2022-09-09T04:11:07;17.40;85.60
31731;DHT22;18310;55.586;12.286;2022-09-09T04:14:11;19.70;87.30
31731;DHT22;18310;55.586;12.286;2022-09-09T04:17:14;17.40;85.90
31731;DHT22;18310;55.586;12.286;2022-09-09T04:20:19;17.40;86.10
31731;DHT22;18310;55.586;12.286;2022-09-09T04:23:24;19.20;87.10
31731;DHT22;18310;55.586;12.286;2022-09-09T04:26:28;17.40;86.20
31731;DHT22;18310;55.586;12.286;2022-09-09T04:29:32;17.40;86.20
31731;DHT22;18310;55.586;12.286;2022-09-09T04:32:35;17.40;86.20
31731;DHT22;18310;55.586;12.286;2022-09-09T04:35:44;17.50;86.30
31731;DHT22;18310;55.586;12.286;2022-09-09T04:38:48;17.70;86.20
31731;DHT22;18310;55.586;12.286;2022-09-09T04:41:52;17.50;86.30
31731;DHT22;18310;55.586;12.286;2022-09-09T04:44:55;17.60;86.20
31731;DHT22;18310;55.586;12.286;2022-09-09T04:47:58;17.70;86.10
31731;DHT22;18310;55.586;12.286;2022-09-09T04:51:04;17.70;86.00
31731;DHT22;18310;55.586;12.286;2022-09-09T04:54:09;17.70;85.30
31731;DHT22;18310;55.586;12.286;2022-09-09T04:57:14;17.80;85.80
31731;DHT22;18310;55.586;12.286;2022-09-09T05:00:20;17.80;85.80
31731;DHT22;18310;55.586;12.286;2022-09-09T05:03:23;17.00;85.20
31731;DHT22;18310;55.586;12.286;2022-09-09T05:06:28;17.80;85.00
31731;DHT22;18310;55.586;12.286;2022-09-09T05:09:32;17.90;85.40
31731;DHT22;18310;55.586;12.286;2022-09-09T05:12:36;17.80;85.50
31731;DHT22;18310;55.586;12.286;2022-09-09T05:15:39;17.90;85.40
31731;DHT22;18310;55.586;12.286;2022-09-09T05:18:46;17.90;85.40
31731;DHT22;18310;55.586;12.286;2022-09-09T05:21:52;17.90;85.30
31731;DHT22;18310;55.586;12.286;2022-09-09T05:24:55;17.90;85.30
31731;DHT22;18310;55.586;12.286;2022-09-09T05:27:58;17.50;85.10
31731;DHT22;18310;55.586;12.286;2022-09-09T05:31:05;17.90;85.30
31731;DHT22;18310;55.586;12.286;2022-09-09T05:34:11;17.90;85.20
31731;DHT22;18310;55.586;12.286;2022-09-09T05:37:15;18.00;85.30
31731;DHT22;18310;55.586;12.286;2022-09-09T05:40:19;18.60;85.40
31731;DHT22;18310;55.586;12.286;2022-09-09T05:43:24;18.00;85.10
31731;DHT22;18310;55.586;12.286;2022-09-09T05:46:29;17.90;84.20
31731;DHT22;18310;55.586;12.286;2022-09-09T05:49:33;18.00;84.80
31731;DHT22;18310;55.586;12.286;2022-09-09T05:52:38;18.00;84.80
31731;DHT22;18310;55.586;12.286;2022-09-09T05:55:41;18.00;84.90
31731;DHT22;18310;55.586;12.286;2022-09-09T05:58:47;18.00;85.20
31731;DHT22;18310;55.586;12.286;2022-09-09T06:01:51;18.00;85.00
31731;DHT22;18310;55.586;12.286;2022-09-09T06:04:54;18.00;84.60
31731;DHT22;18310;55.586;12.286;2022-09-09T06:08:03;18.00;85.10
31731;DHT22;18310;55.586;12.286;2022-09-09T06:11:07;18.10;85.10
31731;DHT22;18310;55.586;12.286;2022-09-09T06:14:12;18.90;85.50
31731;DHT22;18310;55.586;12.286;2022-09-09T06:17:15;18.10;85.00
31731;DHT22;18310;55.586;12.286;2022-09-09T06:20:19;18.10;84.90
31731;DHT22;18310;55.586;12.286;2022-09-09T06:23:25;18.10;84.70
31731;DHT22;18310;55.586;12.286;2022-09-09T06:26:31;20.50;86.00
31731;DHT22;18310;55.586;12.286;2022-09-09T06:29:35;18.10;85.00
31731;DHT22;18310;55.586;12.286;2022-09-09T06:32:38;18.20;85.10
31731;DHT22;18310;55.586;12.286;2022-09-09T06:35:42;18.20;85.20
31731;DHT22;18310;55.586;12.286;2022-09-09T06:38:56;19.50;86.00
31731;DHT22;18310;55.586;12.286;2022-09-09T06:41:59;18.30;85.20
31731;DHT22;18310;55.586;12.286;2022-09-09T06:45:11;18.30;85.10
31731;DHT22;18310;55.586;12.286;2022-09-09T06:48:14;18.30;85.10
31731;DHT22;18310;55.586;12.286;2022-09-09T06:51:19;18.30;84.30
31731;DHT22;18310;55.586;12.286;2022-09-09T06:54:25;20.80;86.40
31731;DHT22;18310;55.586;12.286;2022-09-09T06:57:28;18.40;85.10
31731;DHT22;18310;55.586;12.286;2022-09-09T07:00:38;18.40;85.20
31731;DHT22;18310;55.586;12.286;2022-09-09T07:03:44;18.40;85.30
31731;DHT22;18310;55.586;12.286;2022-09-09T07:06:49;19.70;86.00
31731;DHT22;18310;55.586;12.286;2022-09-09T07:09:55;18.50;85.70
31731;DHT22;18310;55.586;12.286;2022-09-09T07:12:59;18.50;85.90
31731;DHT22;18310;55.586;12.286;2022-09-09T07:16:04;18.60;86.30
31731;DHT22;18310;55.586;12.286;2022-09-09T07:19:09;18.70;86.70
31731;DHT22;18310;55.586;12.286;2022-09-09T07:22:12;18.80;86.90
31731;DHT22;18310;55.586;12.286;2022-09-09T07:25:18;18.90;86.90
31731;DHT22;18310;55.586;12.286;2022-09-09T07:28:23;18.80;86.40
31731;DHT22;18310;55.586;12.286;2022-09-09T07:31:28;19.20;86.60
31731;DHT22;18310;55.586;12.286;2022-09-09T07:34:33;19.10;85.70
31731;DHT22;18310;55.586;12.286;2022-09-09T07:37:36;19.40;85.50
31731;DHT22;18310;55.586;12.286;2022-09-09T07:40:41;19.50;85.20
31731;DHT22;18310;55.586;12.286;2022-09-09T07:43:46;19.60;85.10
31731;DHT22;18310;55.586;12.286;2022-09-09T07:46:50;19.60;84.50
31731;DHT22;18310;55.586;12.286;2022-09-09T07:49:54;20.10;85.10
31731;DHT22;18310;55.586;12.286;2022-09-09T07:52:58;21.20;85.60
31731;DHT22;18310;55.586;12.286;2022-09-09T07:56:07;19.70;85.10
31731;DHT22;18310;55.586;12.286;2022-09-09T07:59:12;18.40;83.00
31731;DHT22;18310;55.586;12.286;2022-09-09T08:02:16;19.90;84.60
31731;DHT22;18310;55.586;12.286;2022-09-09T08:05:19;20.00;84.50
31731;DHT22;18310;55.586;12.286;2022-09-09T08:08:24;20.00;84.10
31731;DHT22;18310;55.586;12.286;2022-09-09T08:11:29;20.10;84.00
31731;DHT22;18310;55.586;12.286;2022-09-09T08:14:39;20.20;83.50
31731;DHT22;18310;55.586;12.286;2022-09-09T08:17:43;19.20;83.30
31731;DHT22;18310;55.586;12.286;2022-09-09T08:20:46;20.20;84.20
31731;DHT22;18310;55.586;12.286;2022-09-09T08:23:51;20.30;84.30
31731;DHT22;18310;55.586;12.286;2022-09-09T08:27:00;19.70;83.10
31731;DHT22;18310;55.586;12.286;2022-09-09T08:30:04;21.60;83.80
31731;DHT22;18310;55.586;12.286;2022-09-09T08:33:09;20.40;83.60
31731;DHT22;18310;55.586;12.286;2022-09-09T08:36:14;20.50;83.90
31731;DHT22;18310;55.586;12.286;2022-09-09T08:39:20;20.60;84.10
31731;DHT22;18310;55.586;12.286;2022-09-09T08:42:34;20.70;84.20
31731;DHT22;18310;55.586;12.286;2022-09-09T08:45:50;20.80;82.10
31731;DHT22;18310;55.586;12.286;2022-09-09T08:49:05;20.90;81.70
31731;DHT22;18310;55.586;12.286;2022-09-09T08:52:23;21.00;82.70
31731;DHT22;18310;55.586;12.286;2022-09-09T08:55:37;19.20;81.20
31731;DHT22;18310;55.586;12.286;2022-09-09T08:58:47;21.10;82.20
31731;DHT22;18310;55.586;12.286;2022-09-09T09:02:02;21.20;83.00
31731;DHT22;18310;55.586;12.286;2022-09-09T09:05:23;21.30;82.30
31731;DHT22;18310;55.586;12.286;2022-09-09T09:08:33;21.40;82.50
31731;DHT22;18310;55.586;12.286;2022-09-09T09:11:45;21.00;81.60
31731;DHT22;18310;55.586;12.286;2022-09-09T09:14:54;21.50;82.60
31731;DHT22;18310;55.586;12.286;2022-09-09T09:17:59;21.60;81.80
31731;DHT22;18310;55.586;12.286;2022-09-09T09:21:06;21.60;82.10
31731;DHT22;18310;55.586;12.286;2022-09-09T09:24:19;21.70;80.90
31731;DHT22;18310;55.586;12.286;2022-09-09T09:27:31;21.70;82.20
31731;DHT22;18310;55.586;12.286;2022-09-09T09:30:42;21.80;80.50
31731;DHT22;18310;55.586;12.286;2022-09-09T09:33:50;21.80;80.90
31731;DHT22;18310;55.586;12.286;2022-09-09T09:36:57;21.70;81.80
31731;DHT22;18310;55.586;12.286;2022-09-09T09:40:10;22.00;82.10
31731;DHT22;18310;55.586;12.286;2022-09-09T09:43:20;22.10;80.40
31731;DHT22;18310;55.586;12.286;2022-09-09T09:46:28;22.20;81.30
31731;DHT22;18310;55.586;12.286;2022-09-09T09:49:31;22.30;80.50
31731;DHT22;18310;55.586;12.286;2022-09-09T09:52:35;22.50;82.60
31731;DHT22;18310;55.586;12.286;2022-09-09T09:55:49;22.60;82.20
31731;DHT22;18310;55.586;12.286;2022-09-09T09:58:56;22.80;79.30
31731;DHT22;18310;55.586;12.286;2022-09-09T10:02:18;22.80;81.60
31731;DHT22;18310;55.586;12.286;2022-09-09T10:05:25;22.50;78.20
31731;DHT22;18310;55.586;12.286;2022-09-09T10:08:45;22.30;78.20
31731;DHT22;18310;55.586;12.286;2022-09-09T10:11:55;23.10;78.60
31731;DHT22;18310;55.586;12.286;2022-09-09T10:15:21;23.10;78.50
31731;DHT22;18310;55.586;12.286;2022-09-09T10:18:45;23.20;76.40
31731;DHT22;18310;55.586;12.286;2022-09-09T10:25:42;23.20;74.30
31731;DHT22;18310;55.586;12.286;2022-09-09T10:29:08;23.10;72.50
31731;DHT22;18310;55.586;12.286;2022-09-09T10:32:37;23.10;73.40
31731;DHT22;18310;55.586;12.286;2022-09-09T10:35:49;23.10;74.00
31731;DHT22;18310;55.586;12.286;2022-09-09T10:39:03;23.10;73.70
31731;DHT22;18310;55.586;12.286;2022-09-09T10:42:09;23.10;75.80
31731;DHT22;18310;55.586;12.286;2022-09-09T10:45:18;23.10;76.30
31731;DHT22;18310;55.586;12.286;2022-09-09T10:48:31;23.10;75.80
31731;DHT22;18310;55.586;12.286;2022-09-09T10:51:51;23.20;73.80
31731;DHT22;18310;55.586;12.286;2022-09-09T10:55:10;23.20;73.20
31731;DHT22;18310;55.586;12.286;2022-09-09T10:58:22;23.10;74.10
31731;DHT22;18310;55.586;12.286;2022-09-09T11:01:38;23.10;72.20
31731;DHT22;18310;55.586;12.286;2022-09-09T11:04:50;23.00;72.20
31731;DHT22;18310;55.586;12.286;2022-09-09T11:08:03;23.10;73.60
31731;DHT22;18310;55.586;12.286;2022-09-09T11:11:13;23.00;73.60
31731;DHT22;18310;55.586;12.286;2022-09-09T11:14:26;21.30;72.10
31731;DHT22;18310;55.586;12.286;2022-09-09T11:17:42;23.10;74.00
31731;DHT22;18310;55.586;12.286;2022-09-09T11:20:55;23.20;73.70
31731;DHT22;18310;55.586;12.286;2022-09-09T11:24:06;23.30;72.70
31731;DHT22;18310;55.586;12.286;2022-09-09T11:27:17;23.20;71.40
31731;DHT22;18310;55.586;12.286;2022-09-09T11:30:31;23.30;72.50
31731;DHT22;18310;55.586;12.286;2022-09-09T11:34:16;23.30;70.90
31731;DHT22;18310;55.586;12.286;2022-09-09T11:37:44;23.30;69.10
31731;DHT22;18310;55.586;12.286;2022-09-09T11:41:10;23.10;69.10
31731;DHT22;18310;55.586;12.286;2022-09-09T11:44:27;23.10;70.40
31731;DHT22;18310;55.586;12.286;2022-09-09T11:47:32;24.90;72.30
31731;DHT22;18310;55.586;12.286;2022-09-09T11:50:44;22.90;72.80
31731;DHT22;18310;55.586;12.286;2022-09-09T11:53:58;22.90;70.70
31731;DHT22;18310;55.586;12.286;2022-09-09T11:57:22;24.20;72.40
31731;DHT22;18310;55.586;12.286;2022-09-09T12:00:34;22.80;68.70
31731;DHT22;18310;55.586;12.286;2022-09-09T12:03:43;22.90;71.40
31731;DHT22;18310;55.586;12.286;2022-09-09T12:06:51;22.90;70.70
31731;DHT22;18310;55.586;12.286;2022-09-09T12:09:59;23.00;72.70
31731;DHT22;18310;55.586;12.286;2022-09-09T12:13:17;23.10;72.10
31731;DHT22;18310;55.586;12.286;2022-09-09T12:16:32;22.20;69.40
31731;DHT22;18310;55.586;12.286;2022-09-09T12:19:36;23.20;70.40
31731;DHT22;18310;55.586;12.286;2022-09-09T12:22:53;23.30;71.10
31731;DHT22;18310;55.586;12.286;2022-09-09T12:26:07;23.10;69.70
31731;DHT22;18310;55.586;12.286;2022-09-09T12:29:36;23.30;67.60
31731;DHT22;18310;55.586;12.286;2022-09-09T12:32:46;23.00;69.30
31731;DHT22;18310;55.586;12.286;2022-09-09T12:35:53;22.90;71.00
31731;DHT22;18310;55.586;12.286;2022-09-09T12:39:16;22.80;70.30
31731;DHT22;18310;55.586;12.286;2022-09-09T12:42:29;22.80;68.20
31731;DHT22;18310;55.586;12.286;2022-09-09T12:45:44;22.70;67.40
31731;DHT22;18310;55.586;12.286;2022-09-09T12:48:56;22.70;69.00
31731;DHT22;18310;55.586;12.286;2022-09-09T12:52:03;22.60;67.20
31731;DHT22;18310;55.586;12.286;2022-09-09T12:55:17;22.50;69.50
31731;DHT22;18310;55.586;12.286;2022-09-09T12:58:23;22.40;70.20
31731;DHT22;18310;55.586;12.286;2022-09-09T13:01:30;22.30;71.50
31731;DHT22;18310;55.586;12.286;2022-09-09T13:04:36;22.30;71.30
31731;DHT22;18310;55.586;12.286;2022-09-09T13:07:39;22.30;72.00
31731;DHT22;18310;55.586;12.286;2022-09-09T13:10:46;22.30;71.80
31731;DHT22;18310;55.586;12.286;2022-09-09T13:13:56;22.30;70.70
31731;DHT22;18310;55.586;12.286;2022-09-09T13:17:04;22.20;71.00
31731;DHT22;18310;55.586;12.286;2022-09-09T13:20:16;22.10;69.80
31731;DHT22;18310;55.586;12.286;2022-09-09T13:23:21;22.10;69.50
31731;DHT22;18310;55.586;12.286;2022-09-09T13:26:26;22.00;70.40
31731;DHT22;18310;55.586;12.286;2022-09-09T13:29:31;22.30;71.30
31731;DHT22;18310;55.586;12.286;2022-09-09T13:32:36;19.90;69.80
31731;DHT22;18310;55.586;12.286;2022-09-09T13:35:46;22.10;70.70
31731;DHT22;18310;55.586;12.286;2022-09-09T13:38:56;21.90;70.10
31731;DHT22;18310;55.586;12.286;2022-09-09T13:42:03;21.80;69.60
31731;DHT22;18310;55.586;12.286;2022-09-09T13:45:16;21.70;70.30
31731;DHT22;18310;55.586;12.286;2022-09-09T13:48:26;21.70;68.50
31731;DHT22;18310;55.586;12.286;2022-09-09T13:51:36;22.10;69.20
31731;DHT22;18310;55.586;12.286;2022-09-09T13:54:41;21.60;69.10
31731;DHT22;18310;55.586;12.286;2022-09-09T13:57:52;21.60;69.90
31731;DHT22;18310;55.586;12.286;2022-09-09T14:00:56;21.50;68.50
31731;DHT22;18310;55.586;12.286;2022-09-09T14:04:02;21.50;70.60
31731;DHT22;18310;55.586;12.286;2022-09-09T14:07:05;21.40;70.60
31731;DHT22;18310;55.586;12.286;2022-09-09T14:10:09;21.50;70.80
31731;DHT22;18310;55.586;12.286;2022-09-09T14:13:13;21.50;70.60
31731;DHT22;18310;55.586;12.286;2022-09-09T14:16:17;21.40;70.80
31731;DHT22;18310;55.586;12.286;2022-09-09T14:19:23;20.00;70.10
31731;DHT22;18310;55.586;12.286;2022-09-09T14:22:26;21.50;71.00
31731;DHT22;18310;55.586;12.286;2022-09-09T14:25:30;21.40;71.10
31731;DHT22;18310;55.586;12.286;2022-09-09T14:28:35;20.00;70.30
31731;DHT22;18310;55.586;12.286;2022-09-09T14:31:55;21.40;71.00
31731;DHT22;18310;55.586;12.286;2022-09-09T14:35:00;21.40;71.10
31731;DHT22;18310;55.586;12.286;2022-09-09T14:38:03;21.40;70.40
31731;DHT22;18310;55.586;12.286;2022-09-09T14:41:07;21.40;70.60
31731;DHT22;18310;55.586;12.286;2022-09-09T14:44:13;21.20;69.80
31731;DHT22;18310;55.586;12.286;2022-09-09T14:47:17;21.20;71.00
31731;DHT22;18310;55.586;12.286;2022-09-09T14:50:24;23.00;72.10
31731;DHT22;18310;55.586;12.286;2022-09-09T14:53:27;21.80;71.60
31731;DHT22;18310;55.586;12.286;2022-09-09T14:56:32;21.10;71.80
31731;DHT22;18310;55.586;12.286;2022-09-09T14:59:37;21.00;71.10
31731;DHT22;18310;55.586;12.286;2022-09-09T15:02:40;21.00;71.90
31731;DHT22;18310;55.586;12.286;2022-09-09T15:05:45;21.00;72.30
31731;DHT22;18310;55.586;12.286;2022-09-09T15:08:51;23.40;73.60
31731;DHT22;18310;55.586;12.286;2022-09-09T15:11:55;21.10;68.20
31731;DHT22;18310;55.586;12.286;2022-09-09T15:14:58;21.10;71.40
31731;DHT22;18310;55.586;12.286;2022-09-09T15:18:03;21.20;71.40
31731;DHT22;18310;55.586;12.286;2022-09-09T15:21:08;21.10;71.50
31731;DHT22;18310;55.586;12.286;2022-09-09T15:24:12;21.10;70.50
31731;DHT22;18310;55.586;12.286;2022-09-09T15:27:16;21.10;71.20
31731;DHT22;18310;55.586;12.286;2022-09-09T15:30:23;22.40;69.20
31731;DHT22;18310;55.586;12.286;2022-09-09T15:33:26;22.20;72.20
31731;DHT22;18310;55.586;12.286;2022-09-09T15:36:33;21.10;70.40
31731;DHT22;18310;55.586;12.286;2022-09-09T15:39:37;19.90;70.60
31731;DHT22;18310;55.586;12.286;2022-09-09T15:42:41;21.10;71.50
31731;DHT22;18310;55.586;12.286;2022-09-09T15:45:47;19.70;69.80
31731;DHT22;18310;55.586;12.286;2022-09-09T15:48:57;21.10;70.40
31731;DHT22;18310;55.586;12.286;2022-09-09T15:52:03;21.10;71.00
31731;DHT22;18310;55.586;12.286;2022-09-09T15:55:06;21.10;71.10
31731;DHT22;18310;55.586;12.286;2022-09-09T15:58:11;21.10;71.30
31731;DHT22;18310;55.586;12.286;2022-09-09T16:01:14;21.70;71.80
31731;DHT22;18310;55.586;12.286;2022-09-09T16:04:19;21.10;71.10
31731;DHT22;18310;55.586;12.286;2022-09-09T16:07:26;21.10;71.50
31731;DHT22;18310;55.586;12.286;2022-09-09T16:10:30;21.10;70.80
31731;DHT22;18310;55.586;12.286;2022-09-09T16:13:34;20.50;71.00
31731;DHT22;18310;55.586;12.286;2022-09-09T16:16:40;22.30;72.00
31731;DHT22;18310;55.586;12.286;2022-09-09T16:19:43;21.00;71.40
31731;DHT22;18310;55.586;12.286;2022-09-09T16:22:48;21.00;71.50
31731;DHT22;18310;55.586;12.286;2022-09-09T16:25:53;21.00;71.20
31731;DHT22;18310;55.586;12.286;2022-09-09T16:28:57;21.00;72.00
31731;DHT22;18310;55.586;12.286;2022-09-09T16:32:04;21.00;71.70
31731;DHT22;18310;55.586;12.286;2022-09-09T16:35:08;21.00;71.80
31731;DHT22;18310;55.586;12.286;2022-09-09T16:38:14;22.20;72.80
31731;DHT22;18310;55.586;12.286;2022-09-09T16:41:18;21.00;71.60
31731;DHT22;18310;55.586;12.286;2022-09-09T16:44:21;21.00;72.10
31731;DHT22;18310;55.586;12.286;2022-09-09T16:47:25;21.00;72.10
31731;DHT22;18310;55.586;12.286;2022-09-09T16:50:30;20.90;72.00
31731;DHT22;18310;55.586;12.286;2022-09-09T16:53:35;20.90;71.10
31731;DHT22;18310;55.586;12.286;2022-09-09T16:56:40;20.90;72.10
31731;DHT22;18310;55.586;12.286;2022-09-09T16:59:45;20.90;72.40
31731;DHT22;18310;55.586;12.286;2022-09-09T17:02:51;20.90;72.50
31731;DHT22;18310;55.586;12.286;2022-09-09T17:05:54;20.80;72.10
31731;DHT22;18310;55.586;12.286;2022-09-09T17:09:02;20.80;72.40
31731;DHT22;18310;55.586;12.286;2022-09-09T17:12:07;21.30;72.50
31731;DHT22;18310;55.586;12.286;2022-09-09T17:15:11;20.70;72.00
31731;DHT22;18310;55.586;12.286;2022-09-09T17:18:15;20.70;73.20
31731;DHT22;18310;55.586;12.286;2022-09-09T17:21:20;20.70;73.40
31731;DHT22;18310;55.586;12.286;2022-09-09T17:24:27;20.60;73.60
31731;DHT22;18310;55.586;12.286;2022-09-09T17:27:31;20.70;73.80
31731;DHT22;18310;55.586;12.286;2022-09-09T17:30:35;20.60;73.90
31731;DHT22;18310;55.586;12.286;2022-09-09T17:33:42;20.60;74.10
31731;DHT22;18310;55.586;12.286;2022-09-09T17:36:48;20.60;73.90
31731;DHT22;18310;55.586;12.286;2022-09-09T17:39:53;20.50;74.10
31731;DHT22;18310;55.586;12.286;2022-09-09T17:42:57;20.50;74.20
31731;DHT22;18310;55.586;12.286;2022-09-09T17:46:08;19.70;73.70
31731;DHT22;18310;55.586;12.286;2022-09-09T17:49:16;20.40;72.80
31731;DHT22;18310;55.586;12.286;2022-09-09T17:52:20;20.40;74.40
31731;DHT22;18310;55.586;12.286;2022-09-09T17:55:25;20.40;74.40
31731;DHT22;18310;55.586;12.286;2022-09-09T17:58:29;20.30;73.90
31731;DHT22;18310;55.586;12.286;2022-09-09T18:01:35;20.30;74.00
31731;DHT22;18310;55.586;12.286;2022-09-09T18:04:42;20.20;73.90
31731;DHT22;18310;55.586;12.286;2022-09-09T18:07:48;20.20;74.20
31731;DHT22;18310;55.586;12.286;2022-09-09T18:10:55;20.10;74.00
31731;DHT22;18310;55.586;12.286;2022-09-09T18:14:02;22.40;75.20
31731;DHT22;18310;55.586;12.286;2022-09-09T18:17:07;20.00;74.10
31731;DHT22;18310;55.586;12.286;2022-09-09T18:20:11;19.90;73.40
31731;DHT22;18310;55.586;12.286;2022-09-09T18:23:15;19.90;74.50
31731;DHT22;18310;55.586;12.286;2022-09-09T18:26:21;18.00;73.80
31731;DHT22;18310;55.586;12.286;2022-09-09T18:29:26;19.40;74.50
31731;DHT22;18310;55.586;12.286;2022-09-09T18:32:30;19.90;75.10
31731;DHT22;18310;55.586;12.286;2022-09-09T18:35:45;19.80;75.30
31731;DHT22;18310;55.586;12.286;2022-09-09T18:38:53;19.80;74.50
31731;DHT22;18310;55.586;12.286;2022-09-09T18:42:00;19.80;75.30
31731;DHT22;18310;55.586;12.286;2022-09-09T18:45:06;19.90;75.00
31731;DHT22;18310;55.586;12.286;2022-09-09T18:48:10;19.90;74.80
31731;DHT22;18310;55.586;12.286;2022-09-09T18:51:16;19.80;75.10
31731;DHT22;18310;55.586;12.286;2022-09-09T18:54:25;17.90;73.80
31731;DHT22;18310;55.586;12.286;2022-09-09T18:57:33;19.90;74.80
31731;DHT22;18310;55.586;12.286;2022-09-09T19:00:39;20.90;75.40
31731;DHT22;18310;55.586;12.286;2022-09-09T19:03:42;19.80;74.90
31731;DHT22;18310;55.586;12.286;2022-09-09T19:06:47;19.80;74.90
31731;DHT22;18310;55.586;12.286;2022-09-09T19:09:53;19.80;74.90
31731;DHT22;18310;55.586;12.286;2022-09-09T19:12:58;19.80;75.00
31731;DHT22;18310;55.586;12.286;2022-09-09T19:16:04;18.20;73.90
31731;DHT22;18310;55.586;12.286;2022-09-09T19:19:11;19.70;75.10
31731;DHT22;18310;55.586;12.286;2022-09-09T19:22:16;19.70;75.00
31731;DHT22;18310;55.586;12.286;2022-09-09T19:25:20;19.70;75.50
31731;DHT22;18310;55.586;12.286;2022-09-09T19:28:25;19.70;75.60
31731;DHT22;18310;55.586;12.286;2022-09-09T19:31:29;19.70;75.60